createdAt,value
2018-01-17T00:02:16.294Z,5.87
2018-01-17T00:04:43.813Z,5.35
2018-01-17T00:07:11.289Z,3.47
2018-01-17T00:09:39.694Z,5.00
2018-01-17T00:12:07.169Z,10.45
2018-01-17T00:14:35.281Z,2.40
2018-01-17T00:17:02.789Z,2.53
2018-01-17T00:19:30.968Z,4.68
2018-01-17T00:21:58.529Z,1.80
2018-01-17T00:24:26.738Z,2.53
2018-01-17T00:26:54.257Z,6.68
2018-01-17T00:29:23.733Z,5.78
2018-01-17T00:31:51.253Z,5.20
2018-01-17T00:34:18.721Z,9.20
2018-01-17T00:36:46.423Z,3.85
2018-01-17T00:39:15.591Z,3.30
2018-01-17T00:41:43.073Z,8.20
2018-01-17T00:44:11.322Z,3.25
2018-01-17T00:46:39.294Z,6.00
2018-01-17T00:49:08.281Z,3.87
2018-01-17T00:51:36.337Z,4.70
2018-01-17T00:54:05.490Z,6.15
2018-01-17T00:56:33.726Z,6.97
2018-01-17T00:59:02.098Z,4.60
2018-01-17T01:01:32.833Z,9.30
2018-01-17T01:04:01.215Z,5.35
2018-01-17T01:06:30.460Z,6.87
2018-01-17T01:08:58.558Z,5.95
2018-01-17T01:11:28.114Z,4.75
2018-01-17T01:13:56.243Z,5.18
2018-01-17T01:16:23.828Z,4.43
2018-01-17T01:18:51.370Z,5.85
2018-01-17T01:21:19.617Z,6.97
2018-01-17T01:23:47.568Z,6.97
2018-01-17T01:26:15.806Z,9.10
2018-01-17T01:28:44.074Z,4.25
2018-01-17T01:31:14.921Z,12.65
2018-01-17T01:33:43.376Z,6.62
2018-01-17T01:36:13.092Z,4.47
2018-01-17T01:38:42.273Z,3.58
2018-01-17T01:41:11.241Z,7.18
2018-01-17T01:43:41.494Z,6.62
2018-01-17T01:46:10.318Z,2.85
2018-01-17T01:48:37.969Z,4.95
2018-01-17T01:51:05.457Z,2.78
2018-01-17T01:53:33.848Z,10.75
2018-01-17T01:56:02.125Z,3.15
2018-01-17T01:58:30.376Z,3.83
2018-01-17T02:00:59.373Z,6.87
2018-01-17T02:03:27.017Z,5.43
2018-01-17T02:05:55.471Z,7.30
2018-01-17T02:08:22.959Z,12.25
2018-01-17T02:10:51.288Z,2.67
2018-01-17T02:13:21.425Z,5.00
2018-01-17T02:15:49.732Z,5.03
2018-01-17T02:18:17.213Z,4.45
2018-01-17T02:20:44.723Z,6.00
2018-01-17T02:23:13.988Z,6.22
2018-01-17T02:25:41.505Z,4.18
2018-01-17T02:28:11.418Z,6.95
2018-01-17T02:30:40.689Z,3.87
2018-01-17T02:33:08.837Z,5.28
2018-01-17T02:35:37.635Z,7.95
2018-01-17T02:38:05.873Z,6.87
2018-01-17T02:40:40.005Z,5.03
2018-01-17T02:43:07.982Z,7.82
2018-01-17T02:45:35.533Z,3.33
2018-01-17T02:48:05.536Z,3.70
2018-01-17T02:50:33.041Z,7.97
2018-01-17T02:53:00.537Z,6.47
2018-01-17T02:55:28.034Z,7.37
2018-01-17T02:57:55.501Z,9.35
2018-01-17T03:00:24.297Z,5.03
2018-01-17T03:02:52.556Z,2.62
2018-01-17T03:05:20.793Z,5.57
2018-01-17T03:07:51.573Z,6.72
2018-01-17T03:10:19.957Z,6.43
2018-01-17T03:12:47.442Z,9.50
2018-01-17T03:15:14.922Z,5.82
2018-01-17T03:20:18.254Z,4.25
2018-01-17T03:22:46.350Z,3.15
2018-01-17T03:25:15.301Z,5.75
2018-01-17T03:27:42.990Z,5.37
2018-01-17T03:30:10.482Z,7.15
2018-01-17T03:32:38.717Z,5.00
2018-01-17T03:35:06.238Z,3.40
2018-01-17T03:37:34.533Z,8.60
2018-01-17T03:40:02.626Z,6.93
2018-01-17T03:42:30.142Z,4.78
2018-01-17T03:44:57.991Z,8.82
2018-01-17T03:47:27.454Z,4.78
2018-01-17T03:49:54.948Z,5.78
2018-01-17T03:52:23.666Z,5.57
2018-01-17T03:54:52.025Z,8.45
2018-01-17T03:57:19.973Z,8.90
2018-01-17T03:59:49.009Z,4.15
2018-01-17T04:02:17.934Z,4.80
2018-01-17T04:04:45.427Z,3.70
2018-01-17T04:07:13.675Z,6.55
2018-01-17T04:09:42.101Z,5.22
2018-01-17T04:12:09.589Z,4.90
2018-01-17T04:14:37.066Z,4.93
2018-01-17T04:17:04.831Z,2.85
2018-01-17T04:19:32.347Z,2.92
2018-01-17T04:21:59.883Z,7.62
2018-01-17T04:24:27.950Z,3.33
2018-01-17T04:26:56.229Z,6.12
2018-01-17T04:29:24.474Z,4.10
2018-01-17T04:31:52.613Z,2.42
2018-01-17T04:34:20.925Z,6.20
2018-01-17T04:36:50.101Z,3.60
2018-01-17T04:39:18.345Z,4.50
2018-01-17T04:41:45.845Z,8.73
2018-01-17T04:44:13.337Z,9.27
2018-01-17T04:46:43.139Z,3.35
2018-01-17T04:49:11.192Z,3.95
2018-01-17T04:51:39.166Z,3.65
2018-01-17T04:54:06.990Z,3.53
2018-01-17T04:56:34.516Z,11.45
2018-01-17T04:59:02.769Z,4.50
2018-01-17T05:04:05.345Z,4.97
2018-01-17T05:06:32.821Z,4.60
2018-01-17T05:09:00.316Z,5.80
2018-01-17T05:11:29.951Z,2.65
2018-01-17T05:13:57.849Z,4.00
2018-01-17T05:16:26.317Z,5.25
2018-01-17T05:18:53.820Z,2.90
2018-01-17T05:21:21.290Z,7.75
2018-01-17T05:23:49.534Z,14.10
2018-01-17T05:26:17.021Z,4.35
2018-01-17T05:28:45.881Z,3.72
2018-01-17T05:31:14.262Z,6.35
2018-01-17T05:33:43.483Z,4.72
2018-01-17T05:36:17.962Z,11.12
2018-01-17T05:38:47.083Z,8.55
2018-01-17T05:41:15.011Z,3.58
2018-01-17T05:43:43.942Z,6.80
2018-01-17T05:46:11.482Z,5.22
2018-01-17T05:48:38.974Z,5.43
2018-01-17T05:51:09.201Z,5.72
2018-01-17T05:53:38.084Z,4.85
2018-01-17T05:56:05.554Z,2.55
2018-01-17T05:58:33.795Z,4.45
2018-01-17T06:01:02.364Z,8.13
2018-01-17T06:03:29.824Z,6.25
2018-01-17T06:05:57.297Z,7.18
2018-01-17T06:08:24.789Z,6.65
2018-01-17T06:10:53.912Z,7.47
2018-01-17T06:13:21.405Z,10.57
2018-01-17T06:15:48.908Z,7.78
2018-01-17T06:18:17.154Z,6.87
2018-01-17T06:20:45.556Z,8.13
2018-01-17T06:23:14.738Z,7.03
2018-01-17T06:25:42.226Z,13.18
2018-01-17T06:28:09.706Z,11.52
2018-01-17T06:30:38.450Z,6.20
2018-01-17T06:33:07.314Z,6.53
2018-01-17T06:35:35.270Z,6.22
2018-01-17T06:38:02.778Z,4.80
2018-01-17T06:40:35.531Z,10.43
2018-01-17T06:43:04.864Z,6.90
2018-01-17T06:45:33.189Z,8.85
2018-01-17T06:48:00.694Z,8.82
2018-01-17T06:50:29.462Z,9.23
2018-01-17T06:52:58.268Z,7.40
2018-01-17T06:55:26.550Z,4.30
2018-01-17T06:57:54.825Z,10.00
2018-01-17T07:00:23.954Z,4.05
2018-01-17T07:02:53.510Z,7.70
2018-01-17T07:05:21.631Z,6.28
2018-01-17T07:07:50.630Z,8.20
2018-01-17T07:10:20.377Z,7.15
2018-01-17T07:12:48.793Z,8.25
2018-01-17T07:15:17.410Z,6.65
2018-01-17T07:17:45.805Z,5.93
2018-01-17T07:20:13.865Z,8.00
2018-01-17T07:22:42.154Z,6.03
2018-01-17T07:25:09.801Z,7.87
2018-01-17T07:27:37.333Z,7.32
2018-01-17T07:30:05.497Z,8.32
2018-01-17T07:32:34.330Z,10.45
2018-01-17T07:35:01.906Z,5.30
2018-01-17T07:37:30.833Z,7.68
2018-01-17T07:40:00.346Z,9.20
2018-01-17T07:42:27.866Z,6.90
2018-01-17T07:44:57.507Z,6.50
2018-01-17T07:47:25.138Z,7.53
2018-01-17T07:49:54.711Z,8.07
2018-01-17T07:52:22.643Z,11.45
2018-01-17T07:54:50.126Z,21.25
2018-01-17T07:57:18.294Z,9.27
2018-01-17T07:59:45.777Z,10.18
2018-01-17T08:02:16.722Z,14.57
2018-01-17T08:04:46.422Z,10.20
2018-01-17T08:07:14.270Z,6.45
2018-01-17T08:09:44.618Z,11.43
2018-01-17T08:12:12.379Z,5.40
2018-01-17T08:14:42.028Z,7.93
2018-01-17T08:17:09.553Z,5.07
2018-01-17T08:19:39.041Z,7.82
2018-01-17T08:22:07.561Z,8.40
2018-01-17T08:24:35.880Z,11.30
2018-01-17T08:27:04.117Z,7.37
2018-01-17T08:29:31.617Z,7.57
2018-01-17T08:31:59.921Z,6.72
2018-01-17T08:34:28.718Z,14.18
2018-01-17T08:36:56.272Z,8.32
2018-01-17T08:39:25.093Z,3.75
2018-01-17T08:41:53.195Z,8.20
2018-01-17T08:44:20.859Z,9.27
2018-01-17T08:46:48.426Z,20.67
2018-01-17T08:49:18.253Z,4.68
2018-01-17T08:51:46.156Z,12.60
2018-01-17T08:54:18.834Z,10.43
2018-01-17T08:56:47.038Z,11.30
2018-01-17T08:59:15.208Z,6.50
2018-01-17T09:01:43.455Z,9.68
2018-01-17T09:04:12.164Z,16.90
2018-01-17T09:06:40.986Z,9.93
2018-01-17T09:09:09.283Z,8.77
2018-01-17T09:11:36.850Z,6.65
2018-01-17T09:14:05.151Z,9.00
2018-01-17T09:16:33.408Z,4.97
2018-01-17T09:19:01.175Z,9.30
2018-01-17T09:21:30.314Z,10.02
2018-01-17T09:23:57.957Z,6.87
2018-01-17T09:26:26.585Z,7.50
2018-01-17T09:28:54.870Z,7.07
2018-01-17T09:31:24.047Z,7.43
2018-01-17T09:33:53.646Z,9.05
2018-01-17T09:36:21.882Z,11.50
2018-01-17T09:38:49.948Z,5.90
2018-01-17T09:41:18.769Z,6.37
2018-01-17T09:43:51.211Z,13.62
2018-01-17T09:46:19.616Z,7.90
2018-01-17T09:48:47.774Z,11.73
2018-01-17T09:51:17.213Z,11.07
2018-01-17T09:53:47.752Z,12.60
2018-01-17T09:56:16.617Z,13.55
2018-01-17T09:58:44.114Z,17.40
2018-01-17T10:01:11.638Z,12.57
2018-01-17T10:03:40.699Z,9.30
2018-01-17T10:06:08.774Z,19.90
2018-01-17T10:08:36.341Z,11.25
2018-01-17T10:11:04.533Z,14.23
2018-01-17T10:13:34.801Z,12.75
2018-01-17T10:16:05.996Z,8.73
2018-01-17T10:21:10.105Z,12.50
2018-01-17T10:23:37.610Z,6.20
2018-01-17T10:26:05.092Z,9.25
2018-01-17T10:28:37.913Z,5.72
2018-01-17T10:31:07.874Z,10.85
2018-01-17T10:33:36.763Z,9.93
2018-01-17T10:36:05.137Z,11.10
2018-01-17T10:38:33.076Z,10.63
2018-01-17T10:41:01.679Z,11.25
2018-01-17T10:43:30.572Z,12.10
2018-01-17T10:45:58.264Z,9.57
2018-01-17T10:48:27.151Z,10.27
2018-01-17T10:50:54.697Z,12.88
2018-01-17T10:53:24.221Z,16.67
2018-01-17T10:55:52.674Z,12.48
2018-01-17T10:58:20.170Z,15.55
2018-01-17T11:00:49.889Z,12.90
2018-01-17T11:03:19.212Z,17.90
2018-01-17T11:05:47.497Z,13.13
2018-01-17T11:08:15.023Z,10.23
2018-01-17T11:10:43.281Z,11.70
2018-01-17T11:13:10.801Z,14.45
2018-01-17T11:15:41.208Z,9.50
2018-01-17T11:18:09.504Z,9.13
2018-01-17T11:20:37.934Z,12.02
2018-01-17T11:23:07.657Z,8.48
2018-01-17T11:25:35.889Z,11.60
2018-01-17T11:28:04.810Z,8.00
2018-01-17T11:30:34.749Z,16.35
2018-01-17T11:33:02.955Z,9.45
2018-01-17T11:35:34.065Z,11.07
2018-01-17T11:38:02.827Z,9.27
2018-01-17T11:40:32.002Z,10.40
2018-01-17T11:43:01.454Z,10.77
2018-01-17T11:45:29.027Z,14.35
2018-01-17T11:47:58.225Z,14.35
2018-01-17T11:50:26.578Z,15.35
2018-01-17T11:52:55.054Z,15.40
2018-01-17T11:55:23.817Z,8.35
2018-01-17T11:57:52.110Z,15.50
2018-01-17T12:00:21.311Z,12.30
2018-01-17T12:02:48.985Z,20.73
2018-01-17T12:05:18.071Z,11.85
2018-01-17T12:07:46.215Z,9.15
2018-01-17T12:10:14.091Z,14.38
2018-01-17T12:12:41.630Z,11.20
2018-01-17T12:15:09.127Z,16.00
2018-01-17T12:17:36.917Z,16.08
2018-01-17T12:20:05.339Z,11.12
2018-01-17T12:22:33.588Z,14.48
2018-01-17T12:25:01.873Z,11.65
2018-01-17T12:27:30.855Z,14.82
2018-01-17T12:29:59.610Z,11.80
2018-01-17T12:32:27.125Z,14.85
2018-01-17T12:34:56.654Z,14.05
2018-01-17T12:37:25.821Z,15.85
2018-01-17T12:39:53.428Z,7.03
2018-01-17T12:42:23.407Z,14.35
2018-01-17T12:44:51.723Z,8.98
2018-01-17T12:47:20.567Z,17.58
2018-01-17T12:49:50.164Z,16.23
2018-01-17T12:52:18.480Z,10.98
2018-01-17T12:54:46.625Z,13.32
2018-01-17T12:57:14.110Z,16.40
2018-01-17T12:59:43.545Z,14.82
2018-01-17T13:02:12.886Z,13.68
2018-01-17T13:04:41.795Z,11.35
2018-01-17T13:07:11.051Z,10.45
2018-01-17T13:09:39.551Z,8.77
2018-01-17T13:12:07.109Z,16.17
2018-01-17T13:14:36.728Z,13.05
2018-01-17T13:17:11.158Z,13.70
2018-01-17T13:19:38.698Z,5.75
2018-01-17T13:22:07.250Z,6.25
2018-01-17T13:24:36.072Z,8.25
2018-01-17T13:27:06.165Z,5.03
2018-01-17T13:29:34.909Z,11.00
2018-01-17T13:32:02.435Z,11.15
2018-01-17T13:34:30.863Z,14.87
2018-01-17T13:36:59.160Z,7.37
2018-01-17T13:39:27.470Z,12.37
2018-01-17T13:41:55.819Z,12.30
2018-01-17T13:44:25.402Z,8.70
2018-01-17T13:46:55.038Z,9.93
2018-01-17T13:49:24.596Z,16.42
2018-01-17T13:51:52.094Z,10.15
2018-01-17T13:54:25.244Z,11.93
2018-01-17T13:56:56.375Z,8.70
2018-01-17T13:59:25.616Z,6.40
2018-01-17T14:01:53.195Z,15.23
2018-01-17T14:04:22.912Z,10.15
2018-01-17T14:06:50.403Z,10.60
2018-01-17T14:09:20.515Z,12.52
2018-01-17T14:11:49.711Z,9.52
2018-01-17T14:14:18.567Z,7.28
2018-01-17T14:16:47.821Z,9.02
2018-01-17T14:19:17.681Z,8.70
2018-01-17T14:21:47.457Z,10.20
2018-01-17T14:24:15.678Z,10.20
2018-01-17T14:26:45.481Z,9.35
2018-01-17T14:29:13.449Z,10.30
2018-01-17T14:31:43.165Z,18.40
2018-01-17T14:34:11.787Z,12.65
2018-01-17T14:36:41.589Z,16.17
2018-01-17T14:39:09.606Z,11.18
2018-01-17T14:41:39.277Z,7.75
2018-01-17T14:44:06.765Z,8.13
2018-01-17T14:46:34.267Z,6.10
2018-01-17T14:49:04.596Z,8.45
2018-01-17T14:51:33.064Z,16.92
2018-01-17T14:54:01.310Z,7.03
2018-01-17T14:56:30.673Z,14.63
2018-01-17T14:59:00.639Z,10.68
2018-01-17T15:01:29.221Z,9.65
2018-01-17T15:03:58.906Z,7.72
2018-01-17T15:06:28.267Z,7.35
2018-01-17T15:08:58.682Z,16.30
2018-01-17T15:11:26.756Z,11.12
2018-01-17T15:13:55.478Z,10.30
2018-01-17T15:16:24.841Z,10.05
2018-01-17T15:18:54.858Z,10.65
2018-01-17T15:21:22.354Z,11.70
2018-01-17T15:23:51.433Z,7.12
2018-01-17T15:26:19.342Z,4.75
2018-01-17T15:28:49.466Z,6.22
2018-01-17T15:31:17.673Z,7.03
2018-01-17T15:33:47.950Z,10.43
2018-01-17T15:36:15.518Z,16.17
2018-01-17T15:38:43.794Z,7.95
2018-01-17T15:41:13.278Z,15.35
2018-01-17T15:43:41.559Z,6.47
2018-01-17T15:46:09.047Z,8.68
2018-01-17T15:48:36.533Z,9.02
2018-01-17T15:51:05.650Z,6.28
2018-01-17T15:53:35.515Z,9.02
2018-01-17T15:56:04.953Z,9.52
2018-01-17T15:58:33.197Z,7.60
2018-01-17T16:01:02.258Z,6.55
2018-01-17T16:03:29.989Z,13.10
2018-01-17T16:05:59.138Z,10.00
2018-01-17T16:08:27.214Z,10.73
2018-01-17T16:10:55.397Z,8.60
2018-01-17T16:13:22.873Z,10.63
2018-01-17T16:15:50.349Z,10.40
2018-01-17T16:18:19.222Z,7.37
2018-01-17T16:20:48.274Z,10.27
2018-01-17T16:23:16.593Z,5.95
2018-01-17T16:25:45.915Z,12.57
2018-01-17T16:28:14.174Z,12.43
2018-01-17T16:30:43.472Z,8.68
2018-01-17T16:33:12.581Z,8.13
2018-01-17T16:35:40.834Z,11.73
2018-01-17T16:38:10.027Z,11.00
2018-01-17T16:40:39.873Z,10.25
2018-01-17T16:43:09.072Z,14.65
2018-01-17T16:45:37.552Z,21.08
2018-01-17T16:48:06.453Z,12.63
2018-01-17T16:50:34.722Z,9.20
2018-01-17T16:53:05.047Z,18.15
2018-01-17T16:55:34.902Z,17.77
2018-01-17T16:58:02.424Z,13.45
2018-01-17T17:00:30.434Z,9.52
2018-01-17T17:02:58.342Z,18.20
2018-01-17T17:05:26.606Z,12.93
2018-01-17T17:07:55.050Z,15.70
2018-01-17T17:10:23.262Z,14.90
2018-01-17T17:12:51.631Z,10.82
2018-01-17T17:15:19.231Z,21.15
2018-01-17T17:17:47.474Z,19.12
2018-01-17T17:20:15.917Z,15.35
2018-01-17T17:22:44.018Z,24.70
2018-01-17T17:25:11.499Z,16.33
2018-01-17T17:27:39.774Z,18.52
2018-01-17T17:30:07.297Z,17.05
2018-01-17T17:32:36.653Z,22.87
2018-01-17T17:35:05.399Z,21.40
2018-01-17T17:37:33.486Z,18.80
2018-01-17T17:40:01.421Z,27.67
2018-01-17T17:42:28.898Z,13.02
2018-01-17T17:44:57.130Z,19.92
2018-01-17T17:47:26.372Z,17.85
2018-01-17T17:49:54.177Z,23.38
2018-01-17T17:52:22.446Z,21.58
2018-01-17T17:54:51.349Z,20.62
2018-01-17T17:57:20.926Z,22.62
2018-01-17T17:59:48.474Z,26.20
2018-01-17T18:02:16.769Z,22.23
2018-01-17T18:04:44.833Z,28.33
2018-01-17T18:07:13.243Z,18.90
2018-01-17T18:09:42.111Z,23.55
2018-01-17T18:12:10.187Z,26.80
2018-01-17T18:14:37.701Z,25.48
2018-01-17T18:17:05.886Z,24.48
2018-01-17T18:19:34.416Z,18.85
2018-01-17T18:22:03.548Z,20.33
2018-01-17T18:24:31.588Z,29.70
2018-01-17T18:27:00.671Z,22.90
2018-01-17T18:29:28.161Z,13.88
2018-01-17T18:31:56.596Z,20.42
2018-01-17T18:34:25.134Z,24.02
2018-01-17T18:36:52.607Z,24.30
2018-01-17T18:39:20.954Z,22.37
2018-01-17T18:41:50.513Z,17.08
2018-01-17T18:44:18.589Z,25.08
2018-01-17T18:46:46.069Z,30.48
2018-01-17T18:49:14.907Z,16.80
2018-01-17T18:51:43.364Z,17.83
2018-01-17T18:54:14.375Z,21.42
2018-01-17T18:56:43.366Z,19.35
2018-01-17T18:59:12.933Z,15.18
2018-01-17T19:01:41.049Z,23.45
2018-01-17T19:04:10.659Z,24.52
2018-01-17T19:06:39.465Z,32.58
2018-01-17T19:09:08.609Z,20.45
2018-01-17T19:11:36.294Z,23.65
2018-01-17T19:14:03.875Z,20.77
2018-01-17T19:16:31.986Z,25.45
2018-01-17T19:19:01.217Z,20.08
2018-01-17T19:21:33.569Z,21.45
2018-01-17T19:24:01.469Z,28.23
2018-01-17T19:26:29.018Z,23.80
2018-01-17T19:28:56.594Z,28.67
2018-01-17T19:31:24.689Z,16.08
2018-01-17T19:33:53.217Z,18.02
2018-01-17T19:36:22.745Z,19.98
2018-01-17T19:38:50.405Z,20.55
2018-01-17T19:41:18.118Z,21.12
2018-01-17T19:43:46.547Z,24.45
2018-01-17T19:46:14.157Z,20.30
2018-01-17T19:48:42.102Z,13.18
2018-01-17T19:51:11.214Z,17.70
2018-01-17T19:53:39.911Z,16.80
2018-01-17T19:56:08.409Z,17.42
2018-01-17T19:58:38.593Z,15.85
2018-01-17T20:01:07.702Z,23.12
2018-01-17T20:03:35.946Z,22.45
2018-01-17T20:06:03.421Z,24.58
2018-01-17T20:08:32.534Z,17.55
2018-01-17T20:11:01.205Z,18.95
2018-01-17T20:13:29.284Z,16.65
2018-01-17T20:16:02.084Z,13.55
2018-01-17T20:18:29.670Z,18.58
2018-01-17T20:20:58.674Z,20.20
2018-01-17T20:23:27.357Z,19.50
2018-01-17T20:25:54.833Z,13.55
2018-01-17T20:28:25.747Z,20.33
2018-01-17T20:30:54.138Z,23.48
2018-01-17T20:33:21.618Z,20.12
2018-01-17T20:35:49.253Z,13.57
2018-01-17T20:38:17.002Z,15.48
2018-01-17T20:40:45.751Z,21.05
2018-01-17T20:43:21.909Z,16.83
2018-01-17T20:45:50.991Z,18.08
2018-01-17T20:48:19.366Z,17.75
2018-01-17T20:50:47.725Z,9.55
2018-01-17T20:53:16.014Z,15.70
2018-01-17T20:55:43.650Z,12.37
2018-01-17T20:58:12.593Z,19.48
2018-01-17T21:00:40.141Z,24.08
2018-01-17T21:03:08.262Z,15.23
2018-01-17T21:05:36.958Z,15.25
2018-01-17T21:08:04.499Z,14.27
2018-01-17T21:10:32.801Z,21.75
2018-01-17T21:13:03.301Z,19.27
2018-01-17T21:15:31.699Z,19.65
2018-01-17T21:18:01.366Z,12.73
2018-01-17T21:20:32.329Z,14.55
2018-01-17T21:23:04.921Z,14.80
2018-01-17T21:25:40.142Z,15.10
2018-01-17T21:28:30.638Z,26.15
2018-01-17T21:30:58.338Z,16.90
2018-01-17T21:33:26.954Z,22.60
2018-01-17T21:35:55.090Z,18.12
2018-01-17T21:38:23.158Z,24.35
2018-01-17T21:40:50.687Z,13.50
2018-01-17T21:43:24.541Z,17.60
2018-01-17T21:45:52.034Z,19.15
2018-01-17T21:48:21.309Z,17.05
2018-01-17T21:50:50.426Z,11.80
2018-01-17T21:53:19.198Z,24.02
2018-01-17T21:55:46.932Z,16.08
2018-01-17T21:58:14.568Z,15.55
2018-01-17T22:00:42.069Z,18.98
2018-01-17T22:03:10.095Z,12.40
2018-01-17T22:05:38.563Z,13.10
2018-01-17T22:08:06.855Z,14.82
2018-01-17T22:10:34.346Z,12.48
2018-01-17T22:13:04.374Z,16.80
2018-01-17T22:15:36.396Z,22.90
2018-01-17T22:18:04.386Z,13.07
2018-01-17T22:20:33.494Z,17.55
2018-01-17T22:23:01.130Z,24.73
2018-01-17T22:25:29.993Z,22.67
2018-01-17T22:27:59.828Z,18.58
2018-01-17T22:30:27.373Z,23.35
2018-01-17T22:33:00.256Z,21.40
2018-01-17T22:35:28.621Z,20.92
2018-01-17T22:37:56.930Z,13.93
2018-01-17T22:40:26.720Z,19.08
2018-01-17T22:42:54.225Z,10.57
2018-01-17T22:45:21.741Z,17.70
2018-01-17T22:47:50.362Z,19.10
2018-01-17T22:50:20.437Z,17.77
2018-01-17T22:52:48.632Z,20.83
2018-01-17T22:55:19.121Z,17.37
2018-01-17T22:57:47.956Z,7.07
2018-01-17T23:00:19.177Z,21.70
2018-01-17T23:02:50.591Z,27.52
2018-01-17T23:05:19.090Z,11.63
2018-01-17T23:07:48.050Z,17.23
2018-01-17T23:10:19.984Z,17.37
2018-01-17T23:12:47.985Z,19.77
2018-01-17T23:15:17.017Z,20.45
2018-01-17T23:17:44.510Z,13.95
2018-01-17T23:20:13.679Z,18.30
2018-01-17T23:22:42.499Z,16.08
2018-01-17T23:25:12.108Z,13.57
2018-01-17T23:27:42.110Z,19.60
2018-01-17T23:30:10.370Z,17.42
2018-01-17T23:32:37.847Z,14.68
2018-01-17T23:35:06.413Z,13.55
2018-01-17T23:37:36.066Z,14.52
2018-01-17T23:40:03.537Z,15.45
2018-01-17T23:42:31.963Z,22.80
2018-01-17T23:45:04.895Z,18.45
2018-01-17T23:47:33.794Z,19.23
2018-01-17T23:50:02.148Z,7.75
2018-01-17T23:52:31.222Z,10.70
2018-01-17T23:57:53.954Z,13.40
